Time;durP1;ratioP1;P1;durP2;ratioP2;P2;SDS_P1;SDS_P2;PMS_P1;PMS_P2;Temp;Humidity;BMP_temperature;BMP_pressure;BME280_temperature;BME280_humidity;BME280_pressure;Samples;Min_cycle;Max_cycle;Signal;HPM_P1;HPM_P2
2023/02/10 00:01:12;;;;;;;14.40;5.63;;;;;;;8.81;100.00;103337.72;5050688;28;20033;-74
2023/02/10 00:03:38;;;;;;;15.23;4.70;;;;;;;8.77;100.00;103347.47;5052239;28;20021;-71
2023/02/10 00:06:05;;;;;;;11.68;4.72;;;;;;;8.76;100.00;103343.88;5052130;28;20498;-74
2023/02/10 00:08:31;;;;;;;9.93;4.85;;;;;;;8.68;100.00;103336.06;5052206;28;20379;-75
2023/02/10 00:10:59;;;;;;;38.53;6.72;;;;;;;8.70;100.00;103331.22;5052112;28;20056;-74
2023/02/10 00:13:25;;;;;;;16.50;7.28;;;;;;;8.73;100.00;103338.09;5051443;28;20040;-74
2023/02/10 00:15:51;;;;;;;11.43;5.25;;;;;;;8.79;100.00;103337.16;5052279;28;20041;-75
2023/02/10 00:18:16;;;;;;;15.93;5.85;;;;;;;8.81;100.00;103329.56;5050835;28;20115;-75
2023/02/10 00:20:42;;;;;;;15.43;5.25;;;;;;;8.81;100.00;103324.94;5051854;28;20032;-75
2023/02/10 00:23:07;;;;;;;17.42;5.90;;;;;;;8.90;100.00;103328.94;5052405;28;20429;-75
2023/02/10 00:25:36;;;;;;;13.85;5.57;;;;;;;8.95;100.00;103314.59;5053758;28;20387;-75
2023/02/10 00:28:02;;;;;;;16.02;5.47;;;;;;;8.92;100.00;103315.09;5054914;28;20028;-75
2023/02/10 00:30:29;;;;;;;18.73;5.72;;;;;;;8.93;100.00;103310.47;5055783;28;20490;-75
2023/02/10 00:32:55;;;;;;;16.25;4.53;;;;;;;8.91;100.00;103310.69;5055736;28;20029;-74
2023/02/10 00:35:24;;;;;;;12.88;6.25;;;;;;;8.85;100.00;103311.66;5055725;28;20044;-74
2023/02/10 00:37:50;;;;;;;11.98;4.63;;;;;;;8.90;100.00;103300.84;5055624;28;20119;-74
2023/02/10 00:40:16;;;;;;;11.65;5.05;;;;;;;8.96;100.00;103308.09;5055373;28;20115;-74
2023/02/10 00:42:41;;;;;;;11.77;5.07;;;;;;;9.03;100.00;103318.88;5054965;28;20037;-74
2023/02/10 00:45:08;;;;;;;17.42;5.63;;;;;;;9.06;100.00;103318.38;5055895;28;20025;-75
2023/02/10 00:47:33;;;;;;;10.48;4.57;;;;;;;9.05;100.00;103308.53;5055807;28;20478;-73
2023/02/10 00:49:59;;;;;;;15.20;5.10;;;;;;;9.06;100.00;103299.28;5055398;28;20576;-75
2023/02/10 00:52:25;;;;;;;12.57;4.72;;;;;;;9.03;100.00;103295.16;5055340;28;20037;-74
2023/02/10 00:54:50;;;;;;;15.50;6.22;;;;;;;9.06;100.00;103297.38;5055122;28;20099;-75
2023/02/10 00:57:16;;;;;;;9.55;5.30;;;;;;;9.08;100.00;103305.34;5053571;28;20376;-74
2023/02/10 00:59:41;;;;;;;19.15;5.72;;;;;;;9.13;100.00;103308.16;5055234;28;20044;-74
2023/02/10 01:02:07;;;;;;;18.45;5.28;;;;;;;9.07;100.00;103303.69;5055212;28;20037;-75
2023/02/10 01:04:33;;;;;;;12.48;5.03;;;;;;;8.83;100.00;103300.97;5055243;28;20498;-74
2023/02/10 01:06:58;;;;;;;14.95;5.38;;;;;;;8.84;100.00;103286.31;5055182;28;20057;-74
2023/02/10 01:09:25;;;;;;;17.00;5.13;;;;;;;8.90;100.00;103287.22;5055331;28;20056;-75
2023/02/10 01:11:51;;;;;;;17.52;5.43;;;;;;;8.95;100.00;103289.25;5054426;28;20033;-75
2023/02/10 01:14:16;;;;;;;15.35;5.15;;;;;;;9.01;100.00;103291.84;5087353;28;20040;-75
2023/02/10 01:16:42;;;;;;;14.48;5.55;;;;;;;9.03;100.00;103283.41;5055030;28;20029;-75
2023/02/10 01:19:08;;;;;;;10.57;4.13;;;;;;;9.01;100.00;103275.47;5054937;28;20464;-75
2023/02/10 01:21:36;;;;;;;14.45;4.60;;;;;;;9.08;100.00;103272.63;5054811;28;20040;-75
2023/02/10 01:24:03;;;;;;;18.10;5.70;;;;;;;9.11;100.00;103263.94;5054853;28;20102;-75
2023/02/10 01:26:28;;;;;;;23.08;5.65;;;;;;;9.01;100.00;103263.75;5054214;28;20029;-74
2023/02/10 01:28:54;;;;;;;17.05;5.35;;;;;;;9.03;100.00;103247.97;5054792;28;20108;-75
2023/02/10 01:31:21;;;;;;;12.13;4.65;;;;;;;9.17;100.00;103250.16;5054995;28;20115;-75
2023/02/10 01:33:50;;;;;;;22.40;5.78;;;;;;;9.12;100.00;103232.84;5054499;28;20451;-74
2023/02/10 01:36:18;;;;;;;12.63;5.05;;;;;;;9.22;100.00;103233.09;5054516;28;20107;-74
2023/02/10 01:38:45;;;;;;;14.50;4.80;;;;;;;9.15;100.00;103230.50;5053929;28;20083;-74
2023/02/10 01:41:13;;;;;;;16.17;5.80;;;;;;;9.07;100.00;103225.44;5054919;28;20040;-74
2023/02/10 01:44:03;;;;;;;12.52;4.68;;;;;;;9.18;100.00;103226.44;5054588;28;20037;-75
2023/02/10 01:46:33;;;;;;;12.60;5.80;;;;;;;9.07;100.00;103228.16;5054520;28;20029;-75
2023/02/10 01:49:14;;;;;;;13.80;4.57;;;;;;;9.24;100.00;103222.75;5054512;28;20029;-75
2023/02/10 01:51:48;;;;;;;12.63;5.93;;;;;;;9.24;100.00;103225.47;5054433;28;20116;-75
2023/02/10 01:54:18;;;;;;;15.07;5.00;;;;;;;9.18;100.00;103226.44;5053701;28;20083;-75
2023/02/10 01:56:44;;;;;;;14.88;5.57;;;;;;;9.11;100.00;103215.66;5054249;28;20028;-75
2023/02/10 01:59:12;;;;;;;11.32;4.93;;;;;;;9.07;100.00;103211.78;5054324;28;20479;-75
2023/02/10 02:01:37;;;;;;;20.35;5.72;;;;;;;9.12;100.00;103211.88;5052981;28;20029;-75
2023/02/10 02:04:03;;;;;;;10.50;4.90;;;;;;;8.94;100.00;103206.59;5054208;28;20029;-74
2023/02/10 02:06:30;;;;;;;16.17;5.60;;;;;;;8.99;100.00;103194.94;5053533;28;20041;-73
2023/02/10 02:08:55;;;;;;;14.40;5.00;;;;;;;8.88;100.00;103193.94;5053949;28;20040;-74
2023/02/10 02:11:46;;;;;;;12.77;4.97;;;;;;;8.92;100.00;103189.66;5053911;28;20033;-74
2023/02/10 02:14:18;;;;;;;12.55;4.53;;;;;;;8.91;100.00;103188.00;5053917;28;20036;-74
2023/02/10 02:16:49;;;;;;;11.63;4.55;;;;;;;8.88;100.00;103189.31;5053600;28;20033;-73
2023/02/10 02:20:40;;;;;;;13.43;3.83;;;;;;;8.92;100.00;103192.41;5052301;28;20060;-74
2023/02/10 02:22:48;;;;;;;15.45;3.88;;;;;;;8.80;100.00;103189.69;5055039;28;20047;-75
2023/02/10 02:25:28;;;;;;;13.95;4.18;;;;;;;8.83;100.00;103188.38;5053691;28;20041;-74
2023/02/10 02:28:03;;;;;;;14.20;4.63;;;;;;;8.88;100.00;103172.94;5053686;28;20364;-74
2023/02/10 02:30:36;;;;;;;17.73;5.22;;;;;;;8.89;100.00;103185.50;5053495;28;20503;-74
2023/02/10 02:33:10;;;;;;;11.82;4.32;;;;;;;8.86;100.00;103180.56;5052096;28;20045;-73
2023/02/10 02:36:02;;;;;;;11.13;4.68;;;;;;;8.79;100.00;103182.59;5033565;28;20033;-74
2023/02/10 02:38:28;;;;;;;13.60;5.03;;;;;;;8.89;100.00;103173.78;5036825;28;20027;-74
2023/02/10 02:40:55;;;;;;;12.50;4.45;;;;;;;8.97;100.00;103173.38;5053129;28;20048;-74
2023/02/10 02:43:22;;;;;;;13.32;4.35;;;;;;;8.92;100.00;103161.53;5052047;28;20139;-73
2023/02/10 02:46:04;;;;;;;14.32;4.55;;;;;;;8.96;100.00;103154.56;5052577;28;20052;-74
2023/02/10 02:48:49;;;;;;;12.65;4.70;;;;;;;8.93;100.00;103152.31;5053258;28;20487;-74
2023/02/10 02:51:44;;;;;;;14.15;3.97;;;;;;;9.00;100.00;103153.84;5053095;28;20025;-75
2023/02/10 02:54:17;;;;;;;12.70;3.70;;;;;;;8.96;100.00;103157.28;5053200;28;20055;-74
2023/02/10 02:56:55;;;;;;;12.00;4.32;;;;;;;8.96;100.00;103157.28;5053283;28;20481;-75
2023/02/10 02:59:28;;;;;;;20.52;4.35;;;;;;;9.06;100.00;103149.28;5052414;28;20033;-75
2023/02/10 03:02:01;;;;;;;9.23;3.35;;;;;;;8.90;100.00;103154.44;5052659;28;20033;-74
2023/02/10 03:04:30;;;;;;;7.93;3.53;;;;;;;8.90;100.00;103168.06;5053208;28;20031;-75
2023/02/10 03:06:56;;;;;;;16.13;5.87;;;;;;;9.03;100.00;103157.97;5052963;28;20044;-74
2023/02/10 03:09:22;;;;;;;10.63;3.72;;;;;;;9.10;100.00;103150.47;5052873;28;20270;-70
2023/02/10 03:11:47;;;;;;;10.63;3.60;;;;;;;9.15;100.00;103153.28;5051999;28;20032;-74
2023/02/10 03:14:13;;;;;;;17.33;4.53;;;;;;;9.00;100.00;103136.63;5052448;28;20364;-74
2023/02/10 03:16:38;;;;;;;12.65;4.03;;;;;;;9.09;100.00;103136.00;5052824;28;20029;-74
2023/02/10 03:19:04;;;;;;;12.35;4.40;;;;;;;9.00;100.00;103132.00;5052732;28;20025;-74
2023/02/10 03:21:30;;;;;;;10.63;3.58;;;;;;;9.03;100.00;103141.59;5052558;28;20044;-75
2023/02/10 03:23:55;;;;;;;12.00;4.65;;;;;;;8.96;100.00;103135.47;5052086;28;20463;-73
2023/02/10 03:26:21;;;;;;;12.13;4.00;;;;;;;9.02;100.00;103139.94;5051163;28;20387;-75
2023/02/10 03:28:46;;;;;;;9.40;3.60;;;;;;;9.08;100.00;103137.06;5052586;28;20476;-75
2023/02/10 03:31:12;;;;;;;11.73;3.42;;;;;;;9.01;100.00;103133.66;5052476;28;20033;-74
2023/02/10 03:33:37;;;;;;;11.18;4.03;;;;;;;8.94;100.00;103135.72;5052477;28;20025;-74
2023/02/10 03:36:03;;;;;;;12.57;3.75;;;;;;;9.02;100.00;103118.94;5052499;28;20031;-74
2023/02/10 03:38:29;;;;;;;14.50;5.03;;;;;;;9.10;100.00;103139.53;5050993;28;20041;-74
2023/02/10 03:40:55;;;;;;;12.35;3.38;;;;;;;8.98;100.00;103131.41;5052115;28;20041;-74
2023/02/10 03:43:21;;;;;;;15.95;3.70;;;;;;;9.09;100.00;103130.53;5051047;28;20033;-75
2023/02/10 03:45:47;;;;;;;14.45;3.53;;;;;;;9.10;100.00;103129.47;5052358;28;20025;-74
2023/02/10 03:48:15;;;;;;;12.00;2.80;;;;;;;9.22;100.00;103129.41;5052301;28;20040;-74
2023/02/10 03:50:41;;;;;;;14.38;4.15;;;;;;;9.24;100.00;103112.78;5051710;28;20460;-70
2023/02/10 03:53:06;;;;;;;12.80;3.30;;;;;;;9.25;100.00;103096.19;5052191;28;20040;-74
2023/02/10 03:55:33;;;;;;;16.33;3.28;;;;;;;9.32;100.00;103085.94;5052227;28;20085;-73
2023/02/10 03:58:00;;;;;;;11.90;2.63;;;;;;;9.41;100.00;103098.09;5054045;28;20025;-74
2023/02/10 04:00:26;;;;;;;12.35;3.83;;;;;;;9.48;100.00;103097.91;5056379;28;20036;-74
2023/02/10 04:02:52;;;;;;;7.55;2.78;;;;;;;9.54;100.00;103087.91;5054974;28;20399;-74
2023/02/10 04:05:17;;;;;;;8.55;2.50;;;;;;;9.53;100.00;103083.53;5053731;28;20060;-74
2023/02/10 04:07:43;;;;;;;13.32;2.65;;;;;;;9.60;100.00;103079.56;5056273;28;20029;-74
2023/02/10 04:10:08;;;;;;;13.63;3.13;;;;;;;9.63;100.00;103075.50;5056191;28;20109;-75
2023/02/10 04:12:34;;;;;;;9.35;2.53;;;;;;;9.73;100.00;103081.94;5056192;28;20174;-75
2023/02/10 04:15:00;;;;;;;12.52;3.10;;;;;;;9.79;100.00;103082.00;5056161;28;20544;-74
2023/02/10 04:17:25;;;;;;;11.00;3.53;;;;;;;9.79;100.00;103073.81;5055426;28;20033;-74
2023/02/10 04:19:51;;;;;;;9.50;3.25;;;;;;;9.73;100.00;103071.00;5056010;28;20029;-75
2023/02/10 04:22:16;;;;;;;8.93;3.75;;;;;;;9.74;100.00;103071.84;5055982;28;20051;-75
2023/02/10 04:24:42;;;;;;;9.13;2.40;;;;;;;9.66;100.00;103062.16;5055979;28;20032;-73
2023/02/10 04:27:08;;;;;;;8.70;2.83;;;;;;;9.70;100.00;103067.97;5055902;28;20352;-74
2023/02/10 04:29:38;;;;;;;8.20;2.50;;;;;;;9.75;100.00;103062.59;5055092;28;20051;-74
2023/02/10 04:32:04;;;;;;;10.77;2.90;;;;;;;9.80;100.00;103081.75;5055578;28;20033;-75
2023/02/10 04:34:30;;;;;;;8.93;2.80;;;;;;;9.88;100.00;103075.88;5055689;28;20501;-75
2023/02/10 04:36:55;;;;;;;8.45;2.25;;;;;;;9.90;100.00;103076.47;5055473;28;20499;-75
2023/02/10 04:39:21;;;;;;;10.70;2.53;;;;;;;9.82;100.00;103065.13;5055549;28;20033;-73
2023/02/10 04:41:46;;;;;;;7.13;2.10;;;;;;;9.95;100.00;103067.50;5055037;28;20060;-74
2023/02/10 04:44:12;;;;;;;9.85;3.03;;;;;;;9.82;100.00;103054.19;5055393;28;20549;-74
2023/02/10 04:46:37;;;;;;;12.13;2.78;;;;;;;9.89;100.00;103058.41;5055418;28;20163;-72
2023/02/10 04:49:03;;;;;;;12.15;2.63;;;;;;;10.08;100.00;103058.13;5055577;28;20025;-74
2023/02/10 04:51:28;;;;;;;10.60;2.30;;;;;;;9.65;100.00;103057.78;5055452;28;20029;-73
2023/02/10 04:53:54;;;;;;;11.20;2.55;;;;;;;9.93;100.00;103054.09;5055111;28;20104;-75
2023/02/10 04:56:19;;;;;;;9.27;2.83;;;;;;;9.79;100.00;103063.72;5053877;28;20483;-75
2023/02/10 04:58:45;;;;;;;9.35;2.20;;;;;;;9.78;100.00;103059.34;5055190;28;20048;-75
2023/02/10 05:01:10;;;;;;;12.70;2.28;;;;;;;9.68;100.00;103051.03;5051518;28;20049;-73
2023/02/10 05:03:36;;;;;;;11.25;3.25;;;;;;;9.82;100.00;103056.94;5055047;28;20025;-75
2023/02/10 05:06:10;;;;;;;9.13;2.03;;;;;;;9.74;100.00;103058.19;5054936;28;20116;-73
2023/02/10 05:08:40;;;;;;;13.73;3.38;;;;;;;9.66;100.00;103059.44;5054795;28;20143;-75
2023/02/10 05:11:07;;;;;;;10.38;2.80;;;;;;;9.73;100.00;103043.72;5054873;28;20079;-74
2023/02/10 05:13:32;;;;;;;10.63;2.30;;;;;;;9.74;100.00;103042.63;5054931;28;20096;-74
2023/02/10 05:15:58;;;;;;;8.85;2.60;;;;;;;9.79;100.00;103055.53;5054729;28;20108;-74
2023/02/10 05:18:23;;;;;;;17.20;3.72;;;;;;;9.80;100.00;103054.44;5054747;28;20029;-74
2023/02/10 05:20:49;;;;;;;9.55;2.90;;;;;;;9.88;100.00;103062.22;5054718;28;20575;-74
2023/02/10 05:23:15;;;;;;;11.60;2.67;;;;;;;9.73;100.00;103070.19;5054600;28;20041;-74
2023/02/10 05:25:41;;;;;;;8.63;2.60;;;;;;;9.75;100.00;103068.06;5053005;28;20564;-75
2023/02/10 05:28:07;;;;;;;8.65;2.45;;;;;;;9.77;100.00;103065.88;5054616;28;20524;-75
2023/02/10 05:30:32;;;;;;;11.65;3.35;;;;;;;9.78;100.00;103064.81;5054590;28;20021;-74
2023/02/10 05:32:58;;;;;;;6.70;2.60;;;;;;;9.76;100.00;103063.41;5053222;28;20041;-73
2023/02/10 05:35:23;;;;;;;7.60;2.42;;;;;;;9.84;100.00;103046.59;5069728;28;20048;-75
2023/02/10 05:37:49;;;;;;;10.18;3.33;;;;;;;9.79;100.00;103050.06;5074264;28;20040;-75
2023/02/10 05:40:15;;;;;;;8.98;3.03;;;;;;;9.86;100.00;103048.00;5073932;28;20028;-75
2023/02/10 05:42:40;;;;;;;10.40;2.83;;;;;;;9.78;100.00;103056.63;5057079;28;20428;-74
2023/02/10 05:45:06;;;;;;;8.55;2.28;;;;;;;10.41;100.00;103059.91;5054303;28;20439;-75
2023/02/10 05:47:32;;;;;;;9.07;2.38;;;;;;;10.17;100.00;103051.13;5053574;28;20056;-74
2023/02/10 05:49:57;;;;;;;9.88;3.13;;;;;;;10.10;100.00;103043.13;5054061;28;20492;-75
2023/02/10 05:52:23;;;;;;;9.32;4.85;;;;;;;10.00;100.00;103046.56;5054102;28;20040;-74
2023/02/10 05:54:48;;;;;;;11.52;8.05;;;;;;;10.27;100.00;103054.84;5054146;28;20127;-75
2023/02/10 05:57:15;;;;;;;12.75;7.32;;;;;;;10.38;100.00;103065.91;5054064;28;20075;-74
2023/02/10 05:59:41;;;;;;;10.65;7.78;;;;;;;10.42;100.00;103064.28;5061850;28;20059;-74
2023/02/10 06:02:07;;;;;;;8.23;7.43;;;;;;;10.49;100.00;103062.19;5073928;28;20067;-73
2023/02/10 06:04:33;;;;;;;9.45;8.27;;;;;;;10.53;100.00;103063.34;5073697;28;20056;-74
2023/02/10 06:06:59;;;;;;;10.68;7.82;;;;;;;10.46;100.00;103076.38;5073895;28;20436;-74
2023/02/10 06:09:26;;;;;;;9.50;8.20;;;;;;;10.49;100.00;103065.75;5073599;28;20478;-74
2023/02/10 06:11:51;;;;;;;10.60;8.85;;;;;;;10.50;100.00;103074.78;5073629;28;20464;-74
2023/02/10 06:14:17;;;;;;;10.85;9.75;;;;;;;10.47;100.00;103067.94;5073384;28;20054;-73
2023/02/10 06:16:43;;;;;;;13.90;12.77;;;;;;;10.44;100.00;103062.16;5073642;28;20032;-74
2023/02/10 06:19:08;;;;;;;13.15;11.65;;;;;;;10.46;100.00;103058.06;5070886;28;20320;-75
2023/02/10 06:21:34;;;;;;;14.77;13.45;;;;;;;10.45;100.00;103064.63;5052450;28;20039;-73
2023/02/10 06:23:59;;;;;;;13.38;11.95;;;;;;;10.30;100.00;103064.44;5053347;28;20491;-74
2023/02/10 06:26:27;;;;;;;13.55;12.35;;;;;;;10.24;100.00;103057.25;5053451;28;20550;-75
2023/02/10 06:28:54;;;;;;;15.00;13.50;;;;;;;10.33;100.00;103047.53;5053373;28;20163;-75
2023/02/10 06:31:20;;;;;;;13.80;12.77;;;;;;;10.37;100.00;103054.16;5072011;28;20445;-74
2023/02/10 06:33:45;;;;;;;15.68;14.05;;;;;;;10.37;100.00;103037.75;5073149;28;20036;-72
2023/02/10 06:36:11;;;;;;;13.50;12.07;;;;;;;10.47;100.00;103051.53;5071713;28;20039;-74
2023/02/10 06:38:37;;;;;;;17.10;15.40;;;;;;;10.54;100.00;103054.06;5073271;28;20227;-74
2023/02/10 06:41:04;;;;;;;15.18;13.70;;;;;;;10.60;100.00;103057.69;5070435;28;20131;-73
2023/02/10 06:43:29;;;;;;;14.15;12.68;;;;;;;10.69;100.00;103053.41;5053098;28;20029;-72
2023/02/10 06:45:55;;;;;;;15.40;14.00;;;;;;;10.72;100.00;103050.16;5052987;28;20506;-75
2023/02/10 06:48:20;;;;;;;14.75;13.32;;;;;;;10.52;100.00;103048.03;5051580;28;20035;-75
2023/02/10 06:50:47;;;;;;;13.32;12.23;;;;;;;10.48;100.00;103055.09;5053034;28;20025;-75
2023/02/10 06:53:12;;;;;;;12.57;10.68;;;;;;;10.46;100.00;103052.59;5052963;28;20054;-75
2023/02/10 06:55:38;;;;;;;12.60;11.40;;;;;;;10.54;100.00;103054.06;5053140;28;20100;-73
2023/02/10 06:58:04;;;;;;;13.77;12.30;;;;;;;10.47;100.00;103059.72;5053144;28;20036;-71
2023/02/10 07:00:32;;;;;;;14.57;13.27;;;;;;;10.44;100.00;103064.88;5052832;28;20037;-74
2023/02/10 07:02:58;;;;;;;13.43;10.82;;;;;;;10.43;100.00;103065.97;5052702;28;20025;-73
2023/02/10 07:05:23;;;;;;;11.35;9.75;;;;;;;10.40;100.00;103066.47;5052839;28;20040;-72
2023/02/10 07:07:50;;;;;;;10.55;9.40;;;;;;;10.30;100.00;103064.44;5052532;28;20029;-74
2023/02/10 07:10:19;;;;;;;16.35;11.38;;;;;;;10.26;100.00;103057.81;5052597;28;20059;-72
2023/02/10 07:12:46;;;;;;;12.65;10.02;;;;;;;10.52;100.00;103051.59;5051396;28;20571;-74
2023/02/10 07:15:13;;;;;;;11.02;8.68;;;;;;;10.45;100.00;103050.97;5052585;28;20033;-75
2023/02/10 07:17:38;;;;;;;11.52;8.95;;;;;;;10.27;100.00;103049.38;5052342;28;20124;-75
2023/02/10 07:20:05;;;;;;;15.52;9.90;;;;;;;10.62;100.00;103047.31;5052542;28;20104;-75
2023/02/10 07:22:31;;;;;;;11.68;9.65;;;;;;;10.83;100.00;103047.28;5052369;28;20037;-74
2023/02/10 07:24:56;;;;;;;12.05;9.98;;;;;;;10.67;100.00;103048.19;5052502;28;20058;-75
2023/02/10 07:27:22;;;;;;;15.90;10.50;;;;;;;10.59;100.00;103045.09;5052658;28;20025;-72
2023/02/10 07:29:48;;;;;;;19.13;12.88;;;;;;;10.60;100.00;103038.56;5052290;28;20025;-72
2023/02/10 07:32:14;;;;;;;15.00;12.13;;;;;;;10.70;100.00;103049.59;5052099;28;20494;-74
2023/02/10 07:34:40;;;;;;;14.82;13.15;;;;;;;10.53;100.00;103045.03;5051055;28;20047;-75
2023/02/10 07:37:07;;;;;;;15.75;14.20;;;;;;;10.57;100.00;103048.91;5052398;28;20055;-75
2023/02/10 07:39:32;;;;;;;19.00;16.10;;;;;;;10.46;100.00;103052.59;5052306;28;20025;-74
2023/02/10 07:41:58;;;;;;;20.00;17.58;;;;;;;10.67;100.00;103048.19;5051788;28;20060;-78
2023/02/10 07:44:25;;;;;;;22.85;19.67;;;;;;;10.72;100.00;103050.97;5052534;28;20048;-73
2023/02/10 07:46:52;;;;;;;21.15;19.08;;;;;;;10.66;100.00;103052.03;5052396;28;20438;-74
2023/02/10 07:49:18;;;;;;;23.48;21.05;;;;;;;10.82;100.00;103055.75;5052225;28;20033;-70
2023/02/10 07:51:43;;;;;;;23.10;20.90;;;;;;;10.90;100.00;103047.06;5052357;28;20090;-72
2023/02/10 07:54:09;;;;;;;29.73;22.33;;;;;;;10.96;100.00;103042.47;5052210;28;20028;-70
2023/02/10 07:56:35;;;;;;;26.33;23.30;;;;;;;11.07;100.00;103042.28;5052328;28;20105;-72
2023/02/10 07:59:01;;;;;;;30.67;21.90;;;;;;;11.19;100.00;103042.13;5052255;28;20449;-69
2023/02/10 08:01:27;;;;;;;26.55;23.67;;;;;;;11.17;100.00;103040.72;5052280;28;20519;-70
2023/02/10 08:03:53;;;;;;;25.52;21.50;;;;;;;11.12;100.00;103041.53;5051001;28;20025;-70
2023/02/10 08:06:23;;;;;;;26.60;23.77;;;;;;;11.02;100.00;103042.22;5052184;28;20426;-70
2023/02/10 08:08:48;;;;;;;28.58;22.67;;;;;;;11.01;100.00;103039.75;5052172;28;20029;-70
2023/02/10 08:11:15;;;;;;;27.08;21.40;;;;;;;10.90;100.00;103054.44;5052394;28;20024;-71
2023/02/10 08:13:41;;;;;;;26.27;23.55;;;;;;;10.83;100.00;103050.00;5052183;28;20032;-70
2023/02/10 08:16:07;;;;;;;31.13;26.80;;;;;;;10.79;100.00;103051.59;5058321;28;20020;-72
2023/02/10 08:18:36;;;;;;;31.80;26.63;;;;;;;10.85;100.00;103055.22;5051032;28;20382;-73
2023/02/10 08:21:03;;;;;;;33.10;29.67;;;;;;;11.07;100.00;103061.44;5051890;28;20539;-84
2023/02/10 08:23:30;;;;;;;28.98;25.60;;;;;;;10.99;100.00;103064.66;5051738;28;20029;-75
2023/02/10 08:25:55;;;;;;;36.97;33.17;;;;;;;10.95;100.00;103066.25;5052015;28;20434;-74
2023/02/10 08:28:21;;;;;;;28.85;22.73;;;;;;;10.79;100.00;103070.72;5052128;28;20108;-76
2023/02/10 08:30:47;;;;;;;26.05;22.45;;;;;;;10.94;100.00;103066.50;5050858;28;20048;-74
2023/02/10 08:33:12;;;;;;;27.52;22.88;;;;;;;10.97;100.00;103068.75;5051784;28;20037;-80
2023/02/10 08:35:39;;;;;;;26.38;22.13;;;;;;;10.99;100.00;103063.81;5050708;28;20026;-74
2023/02/10 08:38:06;;;;;;;25.42;22.67;;;;;;;11.03;100.00;103073.16;5051983;28;20021;-79
2023/02/10 08:40:32;;;;;;;27.08;23.40;;;;;;;11.24;100.00;103069.50;5051670;28;20120;-74
2023/02/10 08:42:58;;;;;;;28.80;23.60;;;;;;;11.25;100.00;103073.06;5050576;28;20457;-75
2023/02/10 08:45:24;;;;;;;27.90;23.85;;;;;;;11.45;100.00;103070.50;5052904;28;20021;-74
2023/02/10 08:47:49;;;;;;;27.23;23.75;;;;;;;11.36;100.00;103063.88;5055624;28;20043;-80
2023/02/10 08:50:15;;;;;;;27.15;23.88;;;;;;;11.67;100.00;103073.97;5055650;28;20380;-81
2023/02/10 08:52:41;;;;;;;31.33;26.17;;;;;;;11.91;100.00;103068.94;5055421;28;20029;-80
2023/02/10 08:55:07;;;;;;;29.05;25.95;;;;;;;11.97;100.00;103069.78;5055519;28;20063;-81
2023/02/10 08:57:33;;;;;;;33.75;30.20;;;;;;;12.06;100.00;103065.44;5055437;28;20075;-76
2023/02/10 08:59:59;;;;;;;33.50;30.55;;;;;;;12.00;100.00;103057.47;5055481;28;20028;-76
2023/02/10 09:02:25;;;;;;;32.35;27.08;;;;;;;12.10;100.00;103069.31;5053997;28;20483;-76
2023/02/10 09:04:51;;;;;;;30.55;27.83;;;;;;;11.79;100.00;103049.13;5055314;28;20036;-76
2023/02/10 09:07:16;;;;;;;41.47;37.40;;;;;;;11.76;100.00;103071.53;5055163;28;20582;-80
2023/02/10 09:09:42;;;;;;;35.67;32.08;;;;;;;11.84;100.00;103070.25;5055269;28;20510;-75
2023/02/10 09:12:11;;;;;;;35.13;30.13;;;;;;;11.91;100.00;103070.84;5055097;28;20021;-76
2023/02/10 09:14:38;;;;;;;30.50;27.33;;;;;;;11.94;100.00;103073.06;5053794;28;20021;-76
2023/02/10 09:17:04;;;;;;;35.00;31.67;;;;;;;11.97;100.00;103072.53;5054860;28;20029;-76
2023/02/10 09:19:29;;;;;;;41.65;38.40;;;;;;;11.92;100.00;103065.09;5054560;28;20025;-80
2023/02/10 09:21:56;;;;;;;40.20;37.35;;;;;;;12.01;100.00;103062.66;5054577;28;20033;-77
2023/02/10 09:24:23;;;;;;;41.80;38.42;;;;;;;12.06;100.00;103056.41;5054909;28;20503;-76
2023/02/10 09:26:49;;;;;;;41.60;38.25;;;;;;;12.04;100.00;103072.28;5053166;28;20017;-76
2023/02/10 09:29:15;;;;;;;42.25;38.65;;;;;;;12.01;100.00;103068.16;5052068;28;20029;-76
2023/02/10 09:31:41;;;;;;;45.80;41.72;;;;;;;12.30;100.00;103065.00;5053641;28;20059;-76
2023/02/10 09:34:07;;;;;;;44.20;39.97;;;;;;;12.40;100.00;103065.88;5053607;28;20036;-76
2023/02/10 09:36:32;;;;;;;53.30;49.40;;;;;;;12.62;100.00;103071.16;5053500;28;20025;-76
2023/02/10 09:38:58;;;;;;;48.28;44.42;;;;;;;12.68;100.00;103078.28;5053487;28;20020;-77
2023/02/10 09:41:32;;;;;;;44.15;40.20;;;;;;;12.70;100.00;103065.16;5053836;28;20380;-76
2023/02/10 09:44:19;;;;;;;50.40;46.35;;;;;;;12.80;100.00;103058.84;5054585;28;20029;-76
2023/02/10 09:46:58;;;;;;;46.03;41.70;;;;;;;12.74;100.00;103066.25;5054479;28;20111;-76
2023/02/10 09:49:53;;;;;;;47.60;43.60;;;;;;;12.96;100.00;103054.22;5054427;28;20029;-76
2023/02/10 09:52:34;;;;;;;48.13;43.83;;;;;;;13.02;100.00;103064.91;5054762;28;20037;-76
2023/02/10 09:55:00;;;;;;;51.72;47.13;;;;;;;13.19;100.00;103037.19;5052867;28;20033;-76
2023/02/10 09:57:43;;;;;;;52.97;48.47;;;;;;;13.09;100.00;103052.84;5054403;28;20021;-76
2023/02/10 10:00:18;;;;;;;47.33;42.92;;;;;;;13.20;100.00;103052.59;5054254;28;20017;-76
2023/02/10 10:02:50;;;;;;;42.40;38.00;;;;;;;13.40;100.00;103046.28;5054157;28;20056;-76
2023/02/10 10:05:55;;;;;;;43.00;38.92;;;;;;;13.34;100.00;103041.88;5054160;28;20020;-76
2023/02/10 10:08:53;;;;;;;39.08;35.15;;;;;;;13.47;100.00;103035.03;5053196;28;20024;-76
2023/02/10 10:11:32;;;;;;;42.03;37.72;;;;;;;13.41;100.00;103038.88;5054150;28;20021;-75
2023/02/10 10:13:59;;;;;;;42.55;39.05;;;;;;;13.69;100.00;103046.53;5053974;28;20025;-76
2023/02/10 10:16:31;;;;;;;40.47;36.78;;;;;;;13.68;100.00;103047.63;5053900;28;20095;-75
2023/02/10 10:19:12;;;;;;;38.72;33.30;;;;;;;13.78;100.00;103055.00;5053828;28;20475;-76
2023/02/10 10:22:02;;;;;;;38.10;33.22;;;;;;;13.83;100.00;103055.00;5053769;28;20035;-76
2023/02/10 10:24:49;;;;;;;45.63;41.20;;;;;;;13.85;100.00;103056.38;5053772;28;20025;-76
2023/02/10 10:27:31;;;;;;;45.58;41.00;;;;;;;13.93;100.00;103060.47;5053708;28;20035;-76
2023/02/10 10:30:12;;;;;;;46.92;41.78;;;;;;;13.88;100.00;103053.06;5053650;28;20052;-75
2023/02/10 10:33:06;;;;;;;42.95;39.05;;;;;;;14.00;100.00;103055.50;5053601;28;20483;-77
2023/02/10 10:35:42;;;;;;;48.95;44.72;;;;;;;14.03;100.00;103059.59;5051215;28;20037;-76
2023/02/10 10:38:15;;;;;;;53.47;48.90;;;;;;;14.06;100.00;103051.63;5053586;28;20048;-76
2023/02/10 10:40:45;;;;;;;54.53;50.20;;;;;;;14.11;100.00;103045.28;5053287;28;20045;-76
2023/02/10 10:43:17;;;;;;;46.65;42.65;;;;;;;14.22;100.00;103049.66;5053304;28;20028;-76
2023/02/10 10:45:48;;;;;;;47.50;42.95;;;;;;;14.25;100.00;103040.00;5053366;28;20037;-76
2023/02/10 10:48:24;;;;;;;43.13;38.72;;;;;;;13.98;100.00;103052.22;5053077;28;20067;-76
2023/02/10 10:50:49;;;;;;;41.55;37.22;;;;;;;14.47;100.00;103045.16;5053191;28;20021;-76
2023/02/10 10:53:19;;;;;;;43.08;38.83;;;;;;;14.35;100.00;103045.44;5053263;28;20043;-77
2023/02/10 10:55:50;;;;;;;42.78;38.78;;;;;;;14.27;100.00;103055.09;5053031;28;20029;-74
2023/02/10 10:58:30;;;;;;;45.45;41.33;;;;;;;14.61;100.00;103043.44;5053111;28;20036;-74
2023/02/10 11:00:58;;;;;;;46.35;41.85;;;;;;;14.89;100.00;103052.88;5053130;28;20422;-74
2023/02/10 11:03:24;;;;;;;43.08;38.58;;;;;;;14.95;100.00;103055.28;5052895;28;20451;-73
2023/02/10 11:06:07;;;;;;;46.03;41.42;;;;;;;15.16;100.00;103069.72;5052982;28;20061;-75
2023/02/10 11:08:49;;;;;;;41.53;37.13;;;;;;;15.11;100.00;103063.44;5052354;28;20025;-73
2023/02/10 11:11:16;;;;;;;43.45;39.08;;;;;;;15.01;100.00;103072.59;5052934;28;20029;-73
2023/02/10 11:13:55;;;;;;;42.92;38.72;;;;;;;14.85;100.00;103074.63;5052930;28;20079;-74
2023/02/10 11:16:21;;;;;;;35.80;32.10;;;;;;;14.80;100.00;103076.59;5052922;28;20031;-74
2023/02/10 11:18:55;;;;;;;39.22;35.13;;;;;;;14.72;100.00;103075.25;5052815;28;20063;-74